Tuckerton, NJ (08087)

10:08 AM EST on January 31, 2015 (GMT -0500)
West Tuckerton | Change Station
CLOSE
Current Station
Personal Weather Station
Location: Little Egg Harbor Township, NJ
Elevation: 30 ft
Nearby Weather Stations

Elev 30 ft 39.60 °N, 74.35 °W | Updated 45 seconds ago

Clear
Clear
18.7 °F
Feels Like 3 °F
N
19.1
Wind Variable Wind from WNW

Today
High -- | Low -- °F
--% Chance of Precip.
Yesterday
High -- | Low -- °F
Precip. -- in
7:06 AM 5:16 PM
Waxing Gibbous, 90% visible
Pressure 30.20 in
Visibility 10.0 miles
Clouds Clear
Windchill 3 °F
Dew Point 1 °F
Humidity 45%
Rainfall 0.00 in
Snow Depth Not available.
UV 2 out of 12
Pollen .10 out of 12
Air Quality Not available.
Flu Activity Not available.
METAR KACY 311454Z 32019G29KT 10SM CLR M07/M18 A3020 RMK AO2 PK WND 31032/1440 SLP227 T10671178 51016

More Conditions Fewer Conditions

Pressure 30.20 in
Visibility 10.0 miles
Clouds Clear
Windchill 3 °F
Dew Point 1 °F
Humidity 45%
Rainfall 0.00 in
Snow Depth Not available.
UV 2 out of 12
Pollen .10 out of 12
Air Quality Not available.
Flu Activity Not available.
METAR KACY 311454Z 32019G29KT 10SM CLR M07/M18 A3020 RMK AO2 PK WND 31032/1440 SLP227 T10671178 51016

More Conditions Fewer Conditions

10-Day Weather Forecast

Almanac

Astronomy

Jan. 31, 2015 Rise Set
Actual Time
Civil Twilight
Nautical Twilight
Astronomical Twilight
Moon
Length of Visible Light
Length of Day
Tomorrow will be .
, % of the Moon is Illuminated

Today's Extremes

State Highs State Lows

Community

WunderPhotos

Upload Photos

1,792,080 photos uploaded!

WunderBlogs® & News

Nearby

Air Quality

  Air Quality AQ Index Pollutant
Not available.

Snow Depth

Station Depth Elevation

Earthquake Activity

City Distance Mag. Time & Date
Minimum magnitude displayed is 2.5.

Coastal Water Temperatures

Place Temperature

Nearby Weather Stations